Time;durP1;ratioP1;P1;durP2;ratioP2;P2;SDS_P1;SDS_P2;PMS_P1;PMS_P2;Temp;Humidity;BMP_temperature;BMP_pressure;BME280_temperature;BME280_humidity;BME280_pressure;Samples;Min_cycle;Max_cycle;Signal;HPM_P1;HPM_P2
2022/11/07 00:01:46;;;;;;;;;;;;;;;14.25;58.86;99850.00;4450553;32;34922;-61
2022/11/07 00:04:14;;;;;;;;;;;;;;;14.39;58.33;99858.56;4449902;32;33451;-64
2022/11/07 00:06:41;;;;;;;;;;;;;;;14.39;58.36;99860.41;4451760;32;34447;-64
2022/11/07 00:09:09;;;;;;;;;;;;;;;14.37;58.30;99859.69;4452500;32;34467;-64
2022/11/07 00:11:36;;;;;;;;;;;;;;;14.39;58.16;99855.03;4449312;32;35251;-63
2022/11/07 00:14:03;;;;;;;;;;;;;;;14.37;58.37;99857.84;4446839;32;33850;-64
2022/11/07 00:16:31;;;;;;;;;;;;;;;14.30;58.48;99854.00;4442697;32;34563;-65
2022/11/07 00:18:58;;;;;;;;;;;;;;;14.40;58.11;99857.56;4442773;32;33303;-63
2022/11/07 00:21:25;;;;;;;;;;;;;;;14.44;57.67;99860.84;4447509;32;34155;-66
2022/11/07 00:23:53;;;;;;;;;;;;;;;14.44;57.94;99872.47;4451395;32;34662;-64
2022/11/07 00:26:20;;;;;;;;;;;;;;;14.47;57.97;99873.19;4449126;32;35486;-64
2022/11/07 00:28:47;;;;;;;;;;;;;;;14.43;58.18;99875.28;4448704;32;34404;-64
2022/11/07 00:31:15;;;;;;;;;;;;;;;14.33;58.68;99877.09;4447202;32;33746;-64
2022/11/07 00:33:42;;;;;;;;;;;;;;;14.55;57.99;99884.16;4439331;32;33861;-63
2022/11/07 00:36:15;;;;;;;;;;;;;;;14.54;57.73;99882.44;4445164;32;34404;-64
2022/11/07 00:38:43;;;;;;;;;;;;;;;14.55;57.65;99879.63;4451111;32;33363;-65
2022/11/07 00:41:10;;;;;;;;;;;;;;;14.54;57.71;99880.63;4449173;32;34216;-64
2022/11/07 00:43:37;;;;;;;;;;;;;;;14.47;58.41;99882.09;4448284;32;34335;-65
2022/11/07 00:46:05;;;;;;;;;;;;;;;14.58;58.18;99883.91;4447332;32;35489;-64
2022/11/07 00:48:32;;;;;;;;;;;;;;;14.60;57.97;99876.50;4445840;32;34527;-63
2022/11/07 00:51:16;;;;;;;;;;;;;;;14.59;58.02;99870.28;4447928;32;34431;-64
2022/11/07 00:53:44;;;;;;;;;;;;;;;14.60;58.01;99871.97;4443561;32;32980;-64
2022/11/07 00:56:12;;;;;;;;;;;;;;;14.59;58.22;99874.81;4445321;32;35424;-63
2022/11/07 00:58:40;;;;;;;;;;;;;;;14.58;58.44;99863.19;4450703;32;33531;-64
2022/11/07 01:01:13;;;;;;;;;;;;;;;14.62;58.38;99871.84;4435588;32;32567;-64
2022/11/07 01:06:28;;;;;;;;;;;;;;;14.60;59.06;99877.34;4441714;32;35713;-62
2022/11/07 01:08:55;;;;;;;;;;;;;;;14.67;58.52;99875.00;4443668;32;33839;-62
2022/11/07 01:11:23;;;;;;;;;;;;;;;14.59;59.10;99877.50;4449619;32;33951;-63
2022/11/07 01:13:57;;;;;;;;;;;;;;;14.68;58.96;99874.84;4448113;32;34779;-63
2022/11/07 01:16:25;;;;;;;;;;;;;;;14.73;58.74;99877.09;4441249;32;35294;-63
2022/11/07 01:18:53;;;;;;;;;;;;;;;14.66;59.04;99876.81;4442629;32;33503;-64
2022/11/07 01:21:20;;;;;;;;;;;;;;;14.60;59.21;99874.66;4446100;32;33993;-64
2022/11/07 01:23:47;;;;;;;;;;;;;;;14.63;59.39;99876.22;4446534;32;34352;-63
2022/11/07 01:26:15;;;;;;;;;;;;;;;14.73;59.14;99877.09;4446830;32;33220;-63
2022/11/07 01:28:42;;;;;;;;;;;;;;;14.79;58.76;99868.47;4446133;32;33513;-64
2022/11/07 01:31:11;;;;;;;;;;;;;;;14.74;58.99;99870.75;4445871;32;33610;-63
2022/11/07 01:33:38;;;;;;;;;;;;;;;14.75;58.98;99866.22;4436998;32;35310;-64
2022/11/07 01:36:10;;;;;;;;;;;;;;;14.71;58.90;99865.63;4444157;32;35791;-64
2022/11/07 01:38:38;;;;;;;;;;;;;;;14.68;59.55;99879.37;4449360;32;33426;-63
2022/11/07 01:41:25;;;;;;;;;;;;;;;14.79;59.31;99873.88;4450314;32;34965;-63
2022/11/07 01:43:54;;;;;;;;;;;;;;;14.74;59.75;99878.00;4443491;32;34620;-64
2022/11/07 01:46:26;;;;;;;;;;;;;;;14.83;59.21;99878.00;4451612;32;35095;-62
2022/11/07 01:48:55;;;;;;;;;;;;;;;14.81;59.32;99874.59;4447185;32;33713;-64
2022/11/07 01:51:23;;;;;;;;;;;;;;;14.73;59.76;99887.03;4434843;32;35290;-64
2022/11/07 01:53:50;;;;;;;;;;;;;;;14.78;59.81;99884.78;4446737;32;34447;-64
2022/11/07 01:56:17;;;;;;;;;;;;;;;14.93;59.24;99885.22;4435767;32;34278;-64
2022/11/07 01:58:45;;;;;;;;;;;;;;;14.92;59.03;99879.00;4433395;32;33679;-62
2022/11/07 02:01:12;;;;;;;;;;;;;;;14.91;58.86;99877.31;4447836;32;34123;-64
2022/11/07 02:03:40;;;;;;;;;;;;;;;14.74;59.56;99878.00;4440895;32;34369;-64
2022/11/07 02:06:08;;;;;;;;;;;;;;;14.85;59.43;99884.09;4441337;32;34661;-62
2022/11/07 02:08:36;;;;;;;;;;;;;;;14.93;59.11;99888.81;4434806;32;33603;-62
2022/11/07 02:11:03;;;;;;;;;;;;;;;14.94;58.84;99884.25;4435234;32;33705;-62
2022/11/07 02:13:30;;;;;;;;;;;;;;;14.74;59.64;99889.63;4431806;32;34391;-64
2022/11/07 02:15:58;;;;;;;;;;;;;;;14.90;59.33;99884.53;4440078;32;34277;-62
2022/11/07 02:18:26;;;;;;;;;;;;;;;14.91;59.31;99875.44;4434398;32;34286;-62
2022/11/07 02:20:54;;;;;;;;;;;;;;;14.98;59.25;99877.59;4447899;32;34238;-63
2022/11/07 02:23:34;;;;;;;;;;;;;;;15.03;59.03;99884.28;4444603;32;35232;-63
2022/11/07 02:26:02;;;;;;;;;;;;;;;14.97;59.09;99886.69;4438473;32;34259;-63
2022/11/07 02:28:29;;;;;;;;;;;;;;;14.87;59.28;99874.03;4429568;32;34072;-62
2022/11/07 02:30:56;;;;;;;;;;;;;;;14.84;59.51;99879.69;4436287;32;34023;-63
2022/11/07 02:33:23;;;;;;;;;;;;;;;14.86;59.58;99876.84;4445360;32;34468;-64
2022/11/07 02:35:51;;;;;;;;;;;;;;;14.76;60.15;99878.69;4445618;32;35553;-63
2022/11/07 02:38:23;;;;;;;;;;;;;;;14.93;59.75;99878.03;4447273;32;33039;-63
2022/11/07 02:40:54;;;;;;;;;;;;;;;14.93;59.93;99883.41;4434466;32;32904;-63
2022/11/07 02:43:22;;;;;;;;;;;;;;;14.96;59.48;99869.66;4432511;32;34325;-62
2022/11/07 02:45:50;;;;;;;;;;;;;;;14.97;59.49;99868.66;4423277;32;33957;-62
2022/11/07 02:48:17;;;;;;;;;;;;;;;14.96;59.65;99866.97;4448200;32;33243;-63
2022/11/07 02:50:44;;;;;;;;;;;;;;;14.95;59.97;99859.00;4449170;32;34067;-64
2022/11/07 02:53:12;;;;;;;;;;;;;;;15.05;59.49;99871.50;4445546;32;34148;-62
2022/11/07 02:55:39;;;;;;;;;;;;;;;15.02;59.51;99868.22;4435870;32;34523;-62
2022/11/07 02:58:07;;;;;;;;;;;;;;;14.96;59.64;99868.78;4443569;32;33694;-63
2022/11/07 03:00:34;;;;;;;;;;;;;;;15.02;59.46;99866.38;4435444;32;34120;-62
2022/11/07 03:03:01;;;;;;;;;;;;;;;14.96;59.53;99866.09;4448209;32;33817;-65
2022/11/07 03:05:28;;;;;;;;;;;;;;;15.01;59.51;99867.38;4437709;32;34456;-63
2022/11/07 03:07:56;;;;;;;;;;;;;;;15.03;59.46;99861.88;4449246;32;33268;-63
2022/11/07 03:10:23;;;;;;;;;;;;;;;15.06;59.41;99856.19;4450828;32;34134;-63
2022/11/07 03:12:50;;;;;;;;;;;;;;;15.06;59.71;99862.44;4450307;32;34111;-63
2022/11/07 03:15:18;;;;;;;;;;;;;;;15.03;60.01;99859.16;4446249;32;33290;-63
2022/11/07 03:17:45;;;;;;;;;;;;;;;15.10;59.72;99873.78;4445232;32;34310;-65
2022/11/07 03:20:12;;;;;;;;;;;;;;;15.07;60.13;99874.06;4452876;32;33931;-64
2022/11/07 03:22:40;;;;;;;;;;;;;;;15.08;60.00;99870.38;4450623;32;35475;-64
2022/11/07 03:25:07;;;;;;;;;;;;;;;15.04;60.13;99869.78;4449392;32;35428;-65
2022/11/07 03:27:34;;;;;;;;;;;;;;;15.02;60.24;99871.78;4447587;32;33540;-73
2022/11/07 03:30:02;;;;;;;;;;;;;;;15.04;60.22;99863.56;4444490;32;34202;-63
2022/11/07 03:32:29;;;;;;;;;;;;;;;15.08;60.40;99875.75;4444608;32;34344;-64
2022/11/07 03:34:57;;;;;;;;;;;;;;;15.11;60.30;99878.19;4447394;32;33147;-64
2022/11/07 03:37:24;;;;;;;;;;;;;;;15.12;60.24;99869.13;4437861;32;33579;-66
2022/11/07 03:39:51;;;;;;;;;;;;;;;15.14;60.34;99870.66;4450630;32;34382;-64
2022/11/07 03:42:18;;;;;;;;;;;;;;;15.04;60.75;99871.66;4447835;32;34406;-64
2022/11/07 03:44:46;;;;;;;;;;;;;;;15.17;60.31;99865.97;4443158;32;34221;-63
2022/11/07 03:47:13;;;;;;;;;;;;;;;15.20;60.37;99876.47;4443173;32;34262;-65
2022/11/07 03:49:40;;;;;;;;;;;;;;;15.20;60.42;99868.41;4449378;32;33954;-64
2022/11/07 03:52:08;;;;;;;;;;;;;;;15.21;60.43;99875.47;4450124;32;35052;-63
2022/11/07 03:54:35;;;;;;;;;;;;;;;15.24;60.26;99876.06;4449304;32;34401;-63
2022/11/07 03:57:02;;;;;;;;;;;;;;;15.22;60.55;99875.34;4444146;32;35044;-64
2022/11/07 03:59:30;;;;;;;;;;;;;;;15.28;60.47;99882.00;4442077;32;35415;-64
2022/11/07 04:01:57;;;;;;;;;;;;;;;15.25;60.68;99888.56;4445333;32;34357;-63
2022/11/07 04:04:24;;;;;;;;;;;;;;;15.32;60.51;99891.53;4447483;32;33975;-63
2022/11/07 04:06:52;;;;;;;;;;;;;;;15.31;60.80;99897.91;4452295;32;34793;-63
2022/11/07 04:09:19;;;;;;;;;;;;;;;15.36;60.59;99899.19;4442037;32;32906;-63
2022/11/07 04:17:18;;;;;;;;;;;;;;;15.35;60.58;99896.66;4442707;32;34970;-63
2022/11/07 04:19:46;;;;;;;;;;;;;;;15.37;60.73;99902.72;4437246;32;34043;-63
2022/11/07 04:22:14;;;;;;;;;;;;;;;15.40;60.54;99902.44;4449340;32;35854;-65
2022/11/07 04:24:41;;;;;;;;;;;;;;;15.38;60.46;99897.22;4447354;32;35241;-63
2022/11/07 04:30:17;;;;;;;;;;;;;;;15.26;61.13;99897.50;4449961;32;34139;-63
2022/11/07 04:32:52;;;;;;;;;;;;;;;15.29;61.04;99884.56;4449842;32;34165;-64
2022/11/07 04:35:20;;;;;;;;;;;;;;;15.38;60.66;99894.53;4449827;32;34268;-62
2022/11/07 04:37:47;;;;;;;;;;;;;;;15.41;60.51;99895.22;4447414;32;33480;-64
2022/11/07 04:40:14;;;;;;;;;;;;;;;15.41;60.46;99884.41;4451728;32;33792;-62
2022/11/07 04:42:42;;;;;;;;;;;;;;;15.45;60.25;99880.47;4444584;32;34404;-63
2022/11/07 04:45:10;;;;;;;;;;;;;;;15.47;60.15;99875.75;4444923;32;35432;-64
2022/11/07 04:47:37;;;;;;;;;;;;;;;15.48;59.76;99869.41;4448363;32;34856;-62
2022/11/07 04:50:08;;;;;;;;;;;;;;;15.32;60.22;99868.12;4444293;32;32917;-64
2022/11/07 04:52:36;;;;;;;;;;;;;;;15.36;60.19;99885.72;4439492;32;34251;-62
2022/11/07 04:55:03;;;;;;;;;;;;;;;15.41;60.06;99879.91;4449920;32;34272;-62
2022/11/07 04:57:31;;;;;;;;;;;;;;;15.37;60.11;99887.41;4450670;32;34788;-65
2022/11/07 04:59:58;;;;;;;;;;;;;;;15.42;59.88;99887.00;4448449;32;34241;-63
2022/11/07 05:02:25;;;;;;;;;;;;;;;15.36;60.09;99887.56;4446073;32;34830;-63
2022/11/07 05:04:53;;;;;;;;;;;;;;;15.40;59.79;99883.56;4441620;32;34305;-63
2022/11/07 05:07:20;;;;;;;;;;;;;;;15.41;59.67;99896.09;4443492;32;33396;-62
2022/11/07 05:09:47;;;;;;;;;;;;;;;15.40;59.73;99893.50;4447968;32;34180;-63
2022/11/07 05:12:15;;;;;;;;;;;;;;;15.40;59.64;99897.06;4446721;32;33146;-62
2022/11/07 05:14:43;;;;;;;;;;;;;;;15.30;60.14;99898.91;4448844;32;34636;-64
2022/11/07 05:17:14;;;;;;;;;;;;;;;15.24;60.34;99894.06;4435948;32;33497;-65
2022/11/07 05:19:44;;;;;;;;;;;;;;;15.25;60.28;99890.38;4450036;32;34135;-61
2022/11/07 05:24:57;;;;;;;;;;;;;;;15.33;59.81;99891.38;4439684;32;34376;-62
2022/11/07 05:27:25;;;;;;;;;;;;;;;15.31;59.94;99889.81;4448219;32;34392;-63
2022/11/07 05:29:52;;;;;;;;;;;;;;;15.32;59.72;99894.22;4450761;32;34154;-63
2022/11/07 05:32:19;;;;;;;;;;;;;;;15.28;59.71;99892.78;4447824;32;35517;-64
2022/11/07 05:34:47;;;;;;;;;;;;;;;15.23;60.00;99895.94;4449367;32;34322;-63
2022/11/07 05:37:15;;;;;;;;;;;;;;;15.33;59.58;99893.22;4450958;32;33656;-63
2022/11/07 05:39:42;;;;;;;;;;;;;;;15.28;59.95;99896.38;4449893;32;34783;-64
2022/11/07 05:42:09;;;;;;;;;;;;;;;15.33;59.89;99909.41;4449685;32;34202;-63
2022/11/07 05:44:36;;;;;;;;;;;;;;;15.21;60.39;99919.47;4450346;32;34214;-65
2022/11/07 05:47:04;;;;;;;;;;;;;;;15.25;60.27;99922.72;4445580;32;32214;-63
2022/11/07 05:49:31;;;;;;;;;;;;;;;15.20;60.51;99923.16;4441666;32;33955;-63
2022/11/07 05:51:58;;;;;;;;;;;;;;;15.16;60.71;99920.91;4438674;32;33108;-63
2022/11/07 05:54:26;;;;;;;;;;;;;;;15.01;60.94;99937.47;4446771;32;34414;-63
2022/11/07 05:56:54;;;;;;;;;;;;;;;15.08;60.49;99946.69;4448446;32;33387;-64
2022/11/07 05:59:21;;;;;;;;;;;;;;;15.09;60.67;99945.72;4449158;32;34354;-63
2022/11/07 06:01:49;;;;;;;;;;;;;;;15.00;60.79;99946.56;4448342;32;34250;-63
2022/11/07 06:04:17;;;;;;;;;;;;;;;15.06;60.64;99948.69;4434895;32;34443;-64
2022/11/07 06:06:45;;;;;;;;;;;;;;;14.83;61.32;99949.88;4438957;32;34703;-64
2022/11/07 06:09:12;;;;;;;;;;;;;;;14.99;60.92;99947.56;4445912;32;33993;-63
2022/11/07 06:11:39;;;;;;;;;;;;;;;14.94;61.11;99954.34;4449985;32;34260;-63
2022/11/07 06:14:07;;;;;;;;;;;;;;;14.91;61.34;99959.00;4449161;32;33305;-63
2022/11/07 06:16:34;;;;;;;;;;;;;;;15.00;61.28;99959.19;4446539;32;33587;-64
2022/11/07 06:19:02;;;;;;;;;;;;;;;15.02;61.04;99966.09;4448760;32;32697;-64
2022/11/07 06:21:29;;;;;;;;;;;;;;;15.11;60.80;99978.75;4447261;32;34574;-64
2022/11/07 06:23:56;;;;;;;;;;;;;;;15.11;60.63;99986.84;4447737;32;34904;-64
2022/11/07 06:26:24;;;;;;;;;;;;;;;15.09;60.84;99983.47;4442559;32;32253;-63
2022/11/07 06:28:51;;;;;;;;;;;;;;;15.10;61.01;99990.56;4448088;32;32551;-64
2022/11/07 06:31:19;;;;;;;;;;;;;;;15.18;60.75;99989.84;4448058;32;34513;-62
2022/11/07 06:33:50;;;;;;;;;;;;;;;15.22;60.73;100002.09;4440894;32;33128;-62
2022/11/07 06:36:17;;;;;;;;;;;;;;;15.28;60.61;100000.66;4446505;32;33400;-62
2022/11/07 06:38:44;;;;;;;;;;;;;;;15.24;60.71;99999.22;4440962;32;35660;-62
2022/11/07 06:41:12;;;;;;;;;;;;;;;15.20;60.71;100001.34;4451212;32;35180;-63
2022/11/07 06:43:40;;;;;;;;;;;;;;;15.26;60.53;100000.81;4448124;32;34652;-65
2022/11/07 06:46:09;;;;;;;;;;;;;;;15.28;60.53;100006.03;4451749;32;34480;-64
2022/11/07 06:48:37;;;;;;;;;;;;;;;15.29;60.52;100010.47;4437691;32;32562;-65
2022/11/07 06:51:04;;;;;;;;;;;;;;;15.35;60.44;100008.06;4447361;32;34174;-62
2022/11/07 06:53:31;;;;;;;;;;;;;;;15.35;60.19;100015.31;4447194;32;33111;-62
2022/11/07 06:56:00;;;;;;;;;;;;;;;15.35;60.12;100015.31;4436373;32;33515;-66
2022/11/07 06:58:27;;;;;;;;;;;;;;;15.37;60.30;100016.84;4449296;32;34186;-64
2022/11/07 07:00:58;;;;;;;;;;;;;;;15.42;60.12;100021.84;4451225;32;34297;-65
2022/11/07 07:03:26;;;;;;;;;;;;;;;15.53;59.81;100016.31;4444603;32;34217;-64
2022/11/07 07:05:53;;;;;;;;;;;;;;;15.48;59.91;100017.75;4440296;32;32090;-64
2022/11/07 07:08:20;;;;;;;;;;;;;;;15.50;59.84;100019.28;4436436;32;34161;-63
2022/11/07 07:10:48;;;;;;;;;;;;;;;15.47;59.70;100022.25;4452185;32;33098;-63
2022/11/07 07:13:15;;;;;;;;;;;;;;;15.48;59.63;100023.16;4449064;32;34662;-64
2022/11/07 07:15:50;;;;;;;;;;;;;;;15.44;60.04;100033.37;4449983;32;33642;-63
2022/11/07 07:18:18;;;;;;;;;;;;;;;15.53;59.88;100040.59;4448294;32;34365;-63
2022/11/07 07:20:46;;;;;;;;;;;;;;;15.58;60.12;100037.50;4447160;32;34544;-63
2022/11/07 07:23:13;;;;;;;;;;;;;;;15.60;59.81;100027.41;4436200;32;34124;-65
2022/11/07 07:25:41;;;;;;;;;;;;;;;15.58;59.15;100027.56;4439099;32;33857;-64
2022/11/07 07:28:08;;;;;;;;;;;;;;;15.49;59.19;100030.22;4449934;32;35285;-63
2022/11/07 07:30:35;;;;;;;;;;;;;;;15.56;59.14;100034.06;4450096;32;32863;-64
2022/11/07 07:33:03;;;;;;;;;;;;;;;15.45;59.29;100034.22;4451274;32;34484;-63
2022/11/07 07:35:30;;;;;;;;;;;;;;;15.41;59.75;100040.84;4442462;32;32186;-63
2022/11/07 07:37:57;;;;;;;;;;;;;;;15.55;59.24;100041.31;4436512;32;35029;-64
2022/11/07 07:40:25;;;;;;;;;;;;;;;15.38;60.18;100036.63;4447837;32;33674;-66
2022/11/07 07:42:52;;;;;;;;;;;;;;;15.36;60.02;100034.03;4451796;32;33502;-60
2022/11/07 07:45:19;;;;;;;;;;;;;;;15.45;59.87;100036.91;4449967;32;33015;-63
2022/11/07 07:47:47;;;;;;;;;;;;;;;15.53;59.55;100045.16;4452338;32;35773;-65
2022/11/07 07:50:14;;;;;;;;;;;;;;;15.35;60.17;100045.81;4449386;32;32778;-62
2022/11/07 07:52:42;;;;;;;;;;;;;;;15.43;60.04;100050.53;4447903;32;34421;-62
2022/11/07 07:55:10;;;;;;;;;;;;;;;15.42;60.37;100056.06;4447441;32;33684;-62
2022/11/07 07:57:41;;;;;;;;;;;;;;;15.43;59.77;100049.66;4450667;32;34182;-63
2022/11/07 08:00:09;;;;;;;;;;;;;;;15.22;60.59;100049.78;4449791;32;34936;-65
2022/11/07 08:02:42;;;;;;;;;;;;;;;15.24;60.47;100047.78;4449969;32;34775;-62
2022/11/07 08:05:10;;;;;;;;;;;;;;;15.20;60.86;100046.34;4451698;32;33099;-62
2022/11/07 08:07:47;;;;;;;;;;;;;;;15.22;60.78;100050.63;4453578;32;34164;-62
2022/11/07 08:10:15;;;;;;;;;;;;;;;15.33;60.63;100045.09;4453450;32;35251;-62
2022/11/07 08:13:03;;;;;;;;;;;;;;;15.40;60.71;100041.84;4446892;32;34293;-62
2022/11/07 08:15:30;;;;;;;;;;;;;;;15.53;60.01;100046.00;4442488;32;32185;-62
2022/11/07 08:18:01;;;;;;;;;;;;;;;15.42;60.76;100045.28;4454742;32;32838;-64
2022/11/07 08:20:28;;;;;;;;;;;;;;;15.59;60.19;100037.34;4452539;32;33813;-64
2022/11/07 08:22:59;;;;;;;;;;;;;;;15.68;59.84;100040.25;4439458;32;35567;-64
2022/11/07 08:25:27;;;;;;;;;;;;;;;15.54;60.43;100039.63;4450586;32;33413;-62
2022/11/07 08:27:54;;;;;;;;;;;;;;;15.48;60.83;100042.88;4439183;32;34129;-63
2022/11/07 08:30:21;;;;;;;;;;;;;;;15.46;60.63;100039.44;4442090;32;32824;-62
2022/11/07 08:32:48;;;;;;;;;;;;;;;15.51;60.46;100041.75;4436956;32;33897;-61
2022/11/07 08:35:16;;;;;;;;;;;;;;;15.55;60.31;100041.31;4446978;32;34451;-61
2022/11/07 08:37:43;;;;;;;;;;;;;;;15.64;60.48;100033.41;4454267;32;35211;-64
2022/11/07 08:40:11;;;;;;;;;;;;;;;15.76;59.92;100037.69;4452596;32;34101;-62
2022/11/07 08:42:38;;;;;;;;;;;;;;;15.56;60.42;100037.63;4443538;32;33073;-64
2022/11/07 08:45:06;;;;;;;;;;;;;;;15.40;60.90;100037.31;4438952;32;33503;-61
2022/11/07 08:47:33;;;;;;;;;;;;;;;15.53;60.76;100037.91;4454302;32;32886;-62
2022/11/07 08:50:00;;;;;;;;;;;;;;;15.86;59.75;100037.69;4453478;32;34389;-63
2022/11/07 08:52:27;;;;;;;;;;;;;;;15.49;61.22;100043.72;4451419;32;34577;-62
2022/11/07 08:54:55;;;;;;;;;;;;;;;15.77;60.29;100042.09;4454112;32;34486;-62
2022/11/07 08:57:22;;;;;;;;;;;;;;;15.79;60.29;100037.41;4452883;32;35334;-63
2022/11/07 08:59:49;;;;;;;;;;;;;;;16.00;59.14;100045.38;4449523;32;35539;-64
2022/11/07 09:02:17;;;;;;;;;;;;;;;16.06;59.09;100053.75;4446305;32;34769;-62
2022/11/07 09:05:04;;;;;;;;;;;;;;;16.12;58.96;100052.34;4451506;32;31945;-62
2022/11/07 09:07:31;;;;;;;;;;;;;;;16.22;58.83;100055.88;4452675;32;34212;-66
2022/11/07 09:09:59;;;;;;;;;;;;;;;16.36;58.46;100057.28;4452447;32;33838;-62
2022/11/07 09:12:26;;;;;;;;;;;;;;;16.37;58.38;100053.59;4449607;32;35128;-63
2022/11/07 09:14:53;;;;;;;;;;;;;;;16.36;58.46;100053.72;4444219;32;33623;-65
2022/11/07 09:17:21;;;;;;;;;;;;;;;16.35;58.58;100058.28;4451344;32;32966;-62
2022/11/07 09:19:48;;;;;;;;;;;;;;;16.44;58.39;100065.53;4451506;32;35411;-62
2022/11/07 09:22:15;;;;;;;;;;;;;;;16.52;58.25;100062.09;4450505;32;33459;-62
2022/11/07 09:24:43;;;;;;;;;;;;;;;16.48;58.57;100060.69;4450853;32;33694;-62
2022/11/07 09:27:10;;;;;;;;;;;;;;;16.33;58.64;100064.81;4448152;32;32852;-62
2022/11/07 09:29:38;;;;;;;;;;;;;;;16.40;58.32;100061.37;4451833;32;35468;-62
2022/11/07 09:32:05;;;;;;;;;;;;;;;16.37;58.15;100064.41;4451213;32;35084;-62
2022/11/07 09:34:53;;;;;;;;;;;;;;;15.96;60.12;100061.00;4439963;32;33424;-62
2022/11/07 09:37:28;;;;;;;;;;;;;;;16.25;59.13;100063.69;4444891;32;32845;-65
2022/11/07 09:39:55;;;;;;;;;;;;;;;16.09;59.60;100059.88;4450377;32;34572;-64
2022/11/07 09:42:41;;;;;;;;;;;;;;;16.29;59.00;100062.41;4452738;32;33213;-65
2022/11/07 09:45:12;;;;;;;;;;;;;;;16.42;57.90;100069.38;4453139;32;34342;-65
2022/11/07 09:47:43;;;;;;;;;;;;;;;16.26;58.29;100068.09;4448713;32;34218;-63
2022/11/07 09:50:16;;;;;;;;;;;;;;;16.28;58.22;100065.25;4440115;32;35335;-65
2022/11/07 09:52:50;;;;;;;;;;;;;;;16.29;58.48;100062.41;4436058;32;34529;-63
2022/11/07 09:55:24;;;;;;;;;;;;;;;16.31;58.33;100056.88;4451163;32;31891;-63
2022/11/07 09:57:53;;;;;;;;;;;;;;;16.19;58.62;100060.72;4451579;32;34365;-63
2022/11/07 10:00:21;;;;;;;;;;;;;;;15.41;61.84;100062.44;4435138;32;34132;-64
2022/11/07 10:02:49;;;;;;;;;;;;;;;16.05;59.52;100059.28;4444083;32;35482;-62
2022/11/07 10:05:37;;;;;;;;;;;;;;;16.25;58.88;100060.16;4438656;32;33651;-62
2022/11/07 10:08:20;;;;;;;;;;;;;;;16.27;58.93;100067.09;4451798;32;34647;-64
2022/11/07 10:10:47;;;;;;;;;;;;;;;16.30;59.00;100061.41;4453830;32;33764;-63
2022/11/07 10:13:27;;;;;;;;;;;;;;;16.04;60.19;100060.28;4452046;32;34376;-65
2022/11/07 10:16:02;;;;;;;;;;;;;;;16.21;59.45;100054.19;4452640;32;33422;-62
2022/11/07 10:18:37;;;;;;;;;;;;;;;15.78;60.89;100060.00;4439547;32;35304;-62
2022/11/07 10:21:08;;;;;;;;;;;;;;;16.18;59.59;100048.19;4454078;32;34375;-62
2022/11/07 10:23:58;;;;;;;;;;;;;;;15.95;60.38;100051.19;4452685;32;35520;-62
2022/11/07 10:26:26;;;;;;;;;;;;;;;16.09;59.67;100043.69;4453671;32;34699;-66
2022/11/07 10:28:58;;;;;;;;;;;;;;;16.04;59.89;100046.78;4438522;32;35323;-66
2022/11/07 10:31:33;;;;;;;;;;;;;;;16.27;59.29;100045.47;4453272;32;34039;-63
2022/11/07 10:34:01;;;;;;;;;;;;;;;16.39;58.59;100050.75;4438925;32;34209;-64
2022/11/07 10:36:30;;;;;;;;;;;;;;;16.37;58.49;100040.09;4437890;32;34806;-63
2022/11/07 10:38:57;;;;;;;;;;;;;;;15.97;60.06;100037.56;4452838;32;33474;-63
2022/11/07 10:41:25;;;;;;;;;;;;;;;16.35;58.76;100050.19;4453122;32;34316;-63
2022/11/07 10:44:08;;;;;;;;;;;;;;;16.20;59.43;100038.09;4451870;32;34647;-65
2022/11/07 10:46:40;;;;;;;;;;;;;;;16.10;59.72;100040.81;4455051;32;33816;-63
2022/11/07 10:49:16;;;;;;;;;;;;;;;16.21;59.26;100037.09;4442999;32;34116;-63
2022/11/07 10:51:44;;;;;;;;;;;;;;;16.26;59.01;100032.12;4446277;32;34267;-63
2022/11/07 10:54:29;;;;;;;;;;;;;;;16.27;58.85;100033.81;4453358;32;34353;-63
2022/11/07 10:56:57;;;;;;;;;;;;;;;16.05;59.93;100030.47;4451683;32;33632;-63
2022/11/07 10:59:27;;;;;;;;;;;;;;;16.15;58.90;100033.16;4441624;32;32944;-63
2022/11/07 11:02:02;;;;;;;;;;;;;;;16.28;58.50;100017.50;4443312;32;35406;-64
2022/11/07 11:04:30;;;;;;;;;;;;;;;16.18;58.73;100010.37;4452682;32;34345;-64
2022/11/07 11:07:02;;;;;;;;;;;;;;;16.33;58.46;100011.66;4452867;32;33444;-64
2022/11/07 11:09:33;;;;;;;;;;;;;;;16.36;58.64;100014.06;4448492;32;32790;-66
2022/11/07 11:12:12;;;;;;;;;;;;;;;16.28;58.69;100012.09;4453405;32;34081;-64
2022/11/07 11:14:39;;;;;;;;;;;;;;;16.33;58.94;100016.19;4439564;32;34401;-65
2022/11/07 11:17:16;;;;;;;;;;;;;;;16.31;58.84;100002.84;4442363;32;33678;-64
2022/11/07 11:19:51;;;;;;;;;;;;;;;16.35;58.93;100015.06;4440791;32;35489;-66
2022/11/07 11:22:19;;;;;;;;;;;;;;;16.25;59.67;100006.97;4453886;32;32701;-67
2022/11/07 11:25:07;;;;;;;;;;;;;;;16.24;59.60;100004.41;4454215;32;34512;-65
2022/11/07 11:27:34;;;;;;;;;;;;;;;16.41;58.64;100006.37;4437517;32;33503;-64
2022/11/07 11:30:22;;;;;;;;;;;;;;;16.11;59.92;100003.88;4432724;32;33013;-63
2022/11/07 11:32:55;;;;;;;;;;;;;;;16.45;59.12;100002.38;4447499;32;33981;-64
2022/11/07 11:35:23;;;;;;;;;;;;;;;16.54;58.72;100003.37;4448759;32;33195;-62
2022/11/07 11:37:51;;;;;;;;;;;;;;;16.21;59.75;99996.59;4439800;32;34027;-64
2022/11/07 11:40:20;;;;;;;;;;;;;;;16.28;59.18;99995.88;4441984;32;33403;-64
2022/11/07 11:42:49;;;;;;;;;;;;;;;16.26;59.39;99994.31;4429864;32;36415;-62
2022/11/07 11:45:35;;;;;;;;;;;;;;;16.37;59.26;99993.28;4429289;32;32734;-62
2022/11/07 11:48:05;;;;;;;;;;;;;;;16.20;59.78;100001.16;4441687;32;33725;-63
2022/11/07 11:50:42;;;;;;;;;;;;;;;16.26;59.00;100007.81;4441756;32;35072;-63
2022/11/07 11:53:17;;;;;;;;;;;;;;;16.19;59.85;100002.16;4444533;32;32941;-63
2022/11/07 11:56:05;;;;;;;;;;;;;;;16.20;59.95;99994.91;4441817;32;33414;-62
2022/11/07 11:58:45;;;;;;;;;;;;;;;16.22;59.97;99999.16;4417615;32;34744;-65
2022/11/07 12:01:51;;;;;;;;;;;;;;;15.74;61.04;100001.91;4436350;32;32745;-64
2022/11/07 12:04:30;;;;;;;;;;;;;;;16.06;60.00;99991.66;4386864;32;33904;-64
2022/11/07 12:07:18;;;;;;;;;;;;;;;15.99;60.31;100001.31;4390069;32;34209;-60
2022/11/07 12:09:47;;;;;;;;;;;;;;;16.02;59.12;99995.66;4422384;32;32216;-61
2022/11/07 12:12:33;;;;;;;;;;;;;;;15.76;59.90;99991.81;4437576;32;32829;-60
2022/11/07 12:15:30;;;;;;;;;;;;;;;15.94;58.49;99987.41;4449853;32;34176;-62
2022/11/07 12:17:58;;;;;;;;;;;;;;;16.12;56.92;99986.69;4439622;32;35085;-60
2022/11/07 12:20:26;;;;;;;;;;;;;;;16.22;57.14;99985.66;4451793;32;34778;-61
2022/11/07 12:23:12;;;;;;;;;;;;;;;16.25;57.20;99990.78;4453718;32;33973;-61
2022/11/07 12:25:39;;;;;;;;;;;;;;;16.22;58.06;99984.81;4447160;32;33111;-60
2022/11/07 12:28:07;;;;;;;;;;;;;;;16.38;56.00;99982.38;4450503;32;32948;-63
2022/11/07 12:30:37;;;;;;;;;;;;;;;16.15;56.47;99972.91;4451748;32;33772;-60
2022/11/07 12:33:10;;;;;;;;;;;;;;;16.33;56.74;99981.94;4450136;32;34240;-60
2022/11/07 12:35:44;;;;;;;;;;;;;;;15.53;58.66;99978.53;4452433;32;34158;-62
2022/11/07 12:38:18;;;;;;;;;;;;;;;15.59;58.02;99978.00;4449761;32;35383;-62
2022/11/07 12:40:45;;;;;;;;;;;;;;;16.04;57.29;99976.59;4444851;32;34616;-72
2022/11/07 12:43:13;;;;;;;;;;;;;;;15.28;59.32;99976.38;4447642;32;35139;-63
2022/11/07 12:45:40;;;;;;;;;;;;;;;15.69;57.27;99975.31;4451154;32;33908;-66
2022/11/07 12:48:14;;;;;;;;;;;;;;;15.99;56.93;99974.34;4451113;32;34711;-66
2022/11/07 12:51:01;;;;;;;;;;;;;;;16.29;56.04;99980.53;4452853;32;33458;-65
2022/11/07 12:53:44;;;;;;;;;;;;;;;15.68;58.24;99972.78;4446991;32;34414;-64
2022/11/07 12:56:12;;;;;;;;;;;;;;;16.18;56.72;99972.56;4453335;32;34438;-63
2022/11/07 12:58:40;;;;;;;;;;;;;;;16.26;57.05;99970.00;4451348;32;34540;-62
2022/11/07 13:01:07;;;;;;;;;;;;;;;16.20;57.18;99971.44;4450061;32;34636;-64
2022/11/07 13:03:54;;;;;;;;;;;;;;;16.46;55.67;99971.66;4438479;32;34411;-64
2022/11/07 13:06:21;;;;;;;;;;;;;;;16.74;54.19;99969.00;4444136;32;34368;-64
2022/11/07 13:09:07;;;;;;;;;;;;;;;16.57;54.53;99965.25;4441039;32;32894;-64
2022/11/07 13:11:38;;;;;;;;;;;;;;;16.89;54.06;99966.72;4450399;32;33414;-63